Joan's Ark — WDF6566 — position and weather

sailwx.info

Track history (hours):
 
Tides and Currents Weather Stations Pressure Air Temp Water Temp Dewpoint Dewpoint Depression Visibility Wind Speed Wind Dir Waves Ship Positions

Joan's Ark

Owner: Eastwinds Company, Virginia Beach, VA. More information available from US FCC via Universal Licensing System and Coast Guard Vessel Documentation Center.

Last reported at 2018-Apr-02 00:32 UTC. Time now 2018-Apr-19 13:47 UTC.
Position N 30°24' W 086°21'.
Warning: this ship's position is 17 days out of date.

Length 35 m; draft 1.8 m.

Type: Pleasure craft. MMSI: 366913000.

Date/timePositionNaut miles runAvg speedWind from/ knotsBaromVisibWave heightAir tempDewpointWater temp
2018-Apr-02 00:32N 30°24' W 086°21'019.0
2018-Apr-02 00:30N 30°25' W 086°22'815.1
2018-Apr-02 00:00N 30°26' W 086°30'3 5.2
2018-Apr-01 23:30N 30°27' W 086°28'3 5.9
2018-Apr-01 22:57N 30°30' W 086°29'4 8.3
2018-Apr-01 22:30N 30°27' W 086°27'4 8.3
2018-Apr-01 22:00N 30°25' W 086°23'3 0.1
2018-Mar-31 20:29N 30°23' W 086°20'0 0.0
2018-Mar-31 20:00N 30°23' W 086°20'0 0.0
2018-Mar-31 19:30N 30°23' W 086°20'3 5.1
2018-Mar-31 18:59N 30°25' W 086°22'816.4
2018-Mar-31 18:30N 30°24' W 086°31'  
2018-Mar-24 17:51N 27°46' W 082°37'  
Track history (hours):
 
Tides and Currents Weather Stations Pressure Air Temp Water Temp Dewpoint Dewpoint Depression Visibility Wind Speed Wind Dir Waves Ship Positions

Joan's Ark

Owner: Eastwinds Company, Virginia Beach, VA. More information available from US FCC via Universal Licensing System and Coast Guard Vessel Documentation Center.

Last reported at 2018-Apr-02 00:32 UTC. Time now 2018-Apr-19 13:47 UTC.
Position N 30°24' W 086°21'.
Warning: this ship's position is 17 days out of date.

Length 35 m; draft 1.8 m.

Type: Pleasure craft. MMSI: 366913000.

Date/timePositionNaut miles runAvg speedWind from/ knotsBaromVisibWave heightAir tempDewpointWater temp
2018-Apr-02 00:32N 30°24' W 086°21'019.0
2018-Apr-02 00:30N 30°25' W 086°22'815.1
2018-Apr-02 00:00N 30°26' W 086°30'3 5.2
2018-Apr-01 23:30N 30°27' W 086°28'3 5.9
2018-Apr-01 22:57N 30°30' W 086°29'4 8.3
2018-Apr-01 22:30N 30°27' W 086°27'4 8.3
2018-Apr-01 22:00N 30°25' W 086°23'3 0.1
2018-Mar-31 20:29N 30°23' W 086°20'0 0.0
2018-Mar-31 20:00N 30°23' W 086°20'0 0.0
2018-Mar-31 19:30N 30°23' W 086°20'3 5.1
2018-Mar-31 18:59N 30°25' W 086°22'816.4
2018-Mar-31 18:30N 30°24' W 086°31'  
2018-Mar-24 17:51N 27°46' W 082°37'  

Dump ship's entire track history